createdAt,value
2019-02-18T00:02:31.944Z,8.08
2019-02-18T00:05:12.619Z,8.03
2019-02-18T00:07:42.816Z,8.04
2019-02-18T00:10:31.179Z,7.57
2019-02-18T00:13:01.443Z,7.89
2019-02-18T00:15:31.653Z,7.89
2019-02-18T00:18:01.861Z,8.09
2019-02-18T00:20:32.065Z,8.05
2019-02-18T00:23:02.264Z,7.91
2019-02-18T00:25:32.479Z,7.99
2019-02-18T00:28:02.690Z,8.04
2019-02-18T00:30:32.868Z,8.01
2019-02-18T00:33:03.055Z,7.58
2019-02-18T00:35:36.222Z,7.64
2019-02-18T00:38:06.424Z,7.76
2019-02-18T00:40:43.613Z,7.88
2019-02-18T00:43:13.814Z,7.90
2019-02-18T00:45:43.992Z,7.56
2019-02-18T00:48:14.191Z,7.93
2019-02-18T00:50:44.384Z,7.83
2019-02-18T00:53:14.677Z,7.90
2019-02-18T00:55:44.831Z,7.76
2019-02-18T00:58:15.021Z,7.46
2019-02-18T01:00:52.013Z,7.56
2019-02-18T01:03:37.532Z,7.72
2019-02-18T01:06:07.704Z,7.63
2019-02-18T01:08:37.899Z,7.32
2019-02-18T01:11:29.326Z,7.68
2019-02-18T01:13:59.522Z,7.72
2019-02-18T01:16:29.691Z,7.65
2019-02-18T01:19:35.471Z,7.78
2019-02-18T01:22:11.125Z,7.81
2019-02-18T01:24:41.333Z,7.79
2019-02-18T01:27:11.514Z,7.61
2019-02-18T01:29:56.728Z,7.58
2019-02-18T01:32:26.902Z,7.73
2019-02-18T01:34:57.103Z,7.63
2019-02-18T01:37:27.290Z,7.41
2019-02-18T01:40:02.205Z,7.55
2019-02-18T01:42:58.382Z,7.72
2019-02-18T01:45:28.585Z,7.63
2019-02-18T01:47:58.784Z,7.52
2019-02-18T01:50:30.040Z,7.66
2019-02-18T01:53:00.230Z,7.68
2019-02-18T01:55:44.572Z,7.70
2019-02-18T01:58:14.763Z,7.38
2019-02-18T02:00:48.184Z,7.32
2019-02-18T02:03:20.245Z,7.59
2019-02-18T02:05:50.512Z,7.41
2019-02-18T02:08:25.231Z,7.35
2019-02-18T02:11:03.707Z,7.25
2019-02-18T02:13:35.650Z,6.87
2019-02-18T02:16:07.502Z,7.08
2019-02-18T02:18:37.683Z,7.05
2019-02-18T02:21:07.891Z,7.16
2019-02-18T02:23:38.059Z,7.05
2019-02-18T02:26:09.352Z,6.91
2019-02-18T02:28:39.515Z,6.99
2019-02-18T02:31:09.719Z,6.99
2019-02-18T02:33:39.973Z,6.89
2019-02-18T02:36:10.173Z,7.00
2019-02-18T02:38:42.294Z,6.61
2019-02-18T02:41:12.472Z,6.65
2019-02-18T02:43:45.703Z,7.02
2019-02-18T02:46:15.905Z,6.86
2019-02-18T02:48:47.127Z,7.08
2019-02-18T02:51:23.053Z,6.85
2019-02-18T02:54:04.368Z,6.83
2019-02-18T02:57:07.845Z,6.86
2019-02-18T02:59:43.102Z,6.82
2019-02-18T03:02:14.178Z,6.78
2019-02-18T03:04:44.389Z,6.90
2019-02-18T03:07:14.568Z,7.04
2019-02-18T03:09:45.732Z,6.89
2019-02-18T03:12:16.831Z,7.03
2019-02-18T03:14:47.017Z,6.82
2019-02-18T03:17:17.225Z,6.83
2019-02-18T03:19:47.419Z,6.84
2019-02-18T03:22:18.745Z,6.92
2019-02-18T03:25:23.115Z,6.84
2019-02-18T03:28:19.026Z,6.92
2019-02-18T03:30:55.439Z,6.84
2019-02-18T03:33:45.275Z,6.90
2019-02-18T03:36:15.938Z,6.82
2019-02-18T03:38:46.119Z,6.80
2019-02-18T03:41:28.368Z,6.78
2019-02-18T03:43:59.622Z,6.76
2019-02-18T03:46:29.826Z,6.86
2019-02-18T03:49:00.004Z,6.75
2019-02-18T03:51:40.784Z,6.83
2019-02-18T03:54:30.789Z,6.79
2019-02-18T03:57:08.613Z,6.66
2019-02-18T03:59:38.807Z,6.64
2019-02-18T04:02:09.010Z,6.68
2019-02-18T04:04:55.179Z,6.77
2019-02-18T04:07:25.359Z,6.75
2019-02-18T04:09:56.539Z,6.78
2019-02-18T04:12:51.985Z,6.86
2019-02-18T04:15:29.099Z,6.85
2019-02-18T04:17:59.286Z,6.70
2019-02-18T04:20:29.479Z,6.63
2019-02-18T04:22:59.685Z,6.63
2019-02-18T04:25:29.880Z,6.63
2019-02-18T04:28:06.185Z,6.60
2019-02-18T04:30:36.360Z,6.72
2019-02-18T04:33:06.584Z,6.69
2019-02-18T04:35:36.766Z,6.58
2019-02-18T04:38:06.953Z,6.63
2019-02-18T04:40:40.815Z,6.39
2019-02-18T04:43:11.011Z,6.45
2019-02-18T04:45:43.311Z,6.60
2019-02-18T04:48:21.666Z,6.58
2019-02-18T04:50:56.229Z,6.42
2019-02-18T04:53:27.357Z,6.39
2019-02-18T04:55:57.559Z,6.12
2019-02-18T04:58:27.715Z,6.36
2019-02-18T05:01:24.084Z,6.23
2019-02-18T05:03:59.900Z,6.12
2019-02-18T05:06:30.084Z,6.15
2019-02-18T05:09:05.324Z,6.18
2019-02-18T05:11:36.068Z,6.03
2019-02-18T05:14:15.076Z,6.01
2019-02-18T05:16:45.287Z,6.05
2019-02-18T05:19:58.871Z,5.93
2019-02-18T05:22:29.068Z,5.93
2019-02-18T05:25:02.367Z,5.94
2019-02-18T05:27:33.535Z,5.92
2019-02-18T05:30:12.323Z,5.93
2019-02-18T05:32:48.335Z,6.03
2019-02-18T05:35:41.679Z,5.85
2019-02-18T05:38:11.892Z,5.72
2019-02-18T05:40:42.067Z,5.79
2019-02-18T05:43:17.905Z,5.79
2019-02-18T05:45:49.002Z,5.85
2019-02-18T05:48:19.196Z,5.67
2019-02-18T05:50:54.076Z,5.90
2019-02-18T05:53:24.266Z,5.86
2019-02-18T05:55:54.436Z,6.02
2019-02-18T05:58:39.802Z,6.04
2019-02-18T06:01:13.604Z,5.86
2019-02-18T06:03:43.809Z,5.54
2019-02-18T06:06:13.982Z,5.73
2019-02-18T06:08:59.583Z,5.90
2019-02-18T06:11:33.655Z,5.74
2019-02-18T06:14:15.841Z,5.92
2019-02-18T06:16:46.022Z,5.87
2019-02-18T06:19:16.229Z,5.62
2019-02-18T06:21:49.522Z,5.44
2019-02-18T06:24:28.809Z,5.63
2019-02-18T06:27:00.626Z,5.51
2019-02-18T06:29:30.824Z,5.49
2019-02-18T06:32:04.876Z,5.66
2019-02-18T06:34:35.071Z,5.55
2019-02-18T06:37:05.243Z,5.52
2019-02-18T06:39:47.526Z,5.56
2019-02-18T06:42:17.704Z,5.69
2019-02-18T06:44:50.458Z,5.80
2019-02-18T06:47:21.529Z,5.68
2019-02-18T06:50:03.331Z,5.84
2019-02-18T06:52:38.634Z,6.05
2019-02-18T06:55:14.508Z,6.03
2019-02-18T06:58:16.408Z,5.98
2019-02-18T07:00:54.106Z,6.08
2019-02-18T07:03:40.986Z,5.96
2019-02-18T07:06:12.772Z,5.96
2019-02-18T07:08:44.603Z,5.89
2019-02-18T07:11:23.787Z,5.90
2019-02-18T07:13:53.952Z,5.97
2019-02-18T07:16:26.117Z,5.89
2019-02-18T07:19:04.662Z,5.90
2019-02-18T07:21:46.207Z,5.96
2019-02-18T07:24:16.383Z,6.10
2019-02-18T07:26:46.616Z,5.91
2019-02-18T07:29:22.758Z,6.02
2019-02-18T07:31:52.980Z,6.09
2019-02-18T07:34:27.373Z,6.35
2019-02-18T07:36:57.589Z,6.29
2019-02-18T07:39:27.833Z,6.66
2019-02-18T07:41:58.006Z,7.16
2019-02-18T07:44:32.209Z,7.54
2019-02-18T07:47:02.927Z,7.72
2019-02-18T07:49:52.891Z,7.72
2019-02-18T07:52:23.133Z,7.92
2019-02-18T07:54:53.333Z,8.56
2019-02-18T07:57:29.494Z,9.14
2019-02-18T08:00:12.303Z,9.30
2019-02-18T08:02:48.235Z,9.30
2019-02-18T08:05:29.587Z,9.04
2019-02-18T08:07:59.839Z,9.29
2019-02-18T08:10:30.016Z,9.60
2019-02-18T08:13:14.975Z,10.43
2019-02-18T08:15:45.158Z,10.13
2019-02-18T08:18:16.290Z,9.96
2019-02-18T08:20:46.497Z,10.37
2019-02-18T08:23:16.714Z,10.90
2019-02-18T08:25:46.956Z,10.54
2019-02-18T08:28:17.178Z,10.71
2019-02-18T08:30:52.316Z,10.55
2019-02-18T08:33:22.526Z,10.76
2019-02-18T08:35:52.801Z,10.74
2019-02-18T08:38:28.995Z,10.90
2019-02-18T08:40:59.190Z,11.12
2019-02-18T08:43:30.635Z,11.21
2019-02-18T08:46:07.674Z,11.22
2019-02-18T08:48:49.761Z,11.42
2019-02-18T08:51:19.932Z,11.40
2019-02-18T08:54:02.073Z,11.10
2019-02-18T08:56:32.257Z,11.47
2019-02-18T08:59:03.445Z,11.12
2019-02-18T09:01:33.637Z,11.25
2019-02-18T09:04:03.850Z,11.22
2019-02-18T09:06:40.992Z,11.17
2019-02-18T09:09:11.197Z,11.30
2019-02-18T09:11:41.377Z,11.40
2019-02-18T09:14:12.519Z,11.54
2019-02-18T09:16:43.570Z,11.63
2019-02-18T09:19:19.035Z,11.83
2019-02-18T09:21:50.864Z,11.77
2019-02-18T09:24:47.730Z,11.73
2019-02-18T09:27:17.923Z,11.81
2019-02-18T09:29:50.737Z,11.92
2019-02-18T09:32:25.744Z,12.17
2019-02-18T09:35:02.114Z,12.51
2019-02-18T09:37:31.015Z,12.45
2019-02-18T09:40:09.129Z,13.13
2019-02-18T09:42:39.324Z,12.71
2019-02-18T09:45:28.703Z,12.71
2019-02-18T09:47:58.928Z,12.67
2019-02-18T09:50:29.165Z,12.58
2019-02-18T09:52:59.341Z,12.63
2019-02-18T09:55:29.570Z,13.01
2019-02-18T09:58:00.679Z,12.96
2019-02-18T10:00:32.805Z,12.99
2019-02-18T10:03:03.901Z,12.81
2019-02-18T10:05:34.099Z,12.63
2019-02-18T10:08:09.280Z,13.12
2019-02-18T10:10:39.489Z,12.71
2019-02-18T10:13:09.679Z,12.68
2019-02-18T10:15:52.756Z,12.91
2019-02-18T10:18:22.939Z,13.01
2019-02-18T10:20:53.155Z,12.62
2019-02-18T10:23:23.340Z,12.95
2019-02-18T10:25:55.489Z,13.08
2019-02-18T10:28:35.583Z,12.70
2019-02-18T10:31:06.700Z,12.80
2019-02-18T10:33:54.105Z,12.98
2019-02-18T10:36:24.322Z,13.07
2019-02-18T10:38:54.511Z,13.04
2019-02-18T10:41:24.726Z,13.41
2019-02-18T10:43:55.003Z,13.44
2019-02-18T10:46:25.207Z,13.31
2019-02-18T10:48:56.330Z,13.50
2019-02-18T10:51:26.546Z,13.42
2019-02-18T10:53:59.698Z,13.48
2019-02-18T10:56:30.244Z,13.59
2019-02-18T10:59:00.457Z,13.85
2019-02-18T11:01:32.615Z,14.28
2019-02-18T11:04:04.720Z,14.20
2019-02-18T11:06:48.231Z,14.43
2019-02-18T11:09:18.426Z,14.26
2019-02-18T11:11:48.833Z,14.52
2019-02-18T11:14:19.031Z,14.54
2019-02-18T11:16:55.312Z,14.36
2019-02-18T11:19:29.274Z,14.48
2019-02-18T11:21:59.506Z,14.59
2019-02-18T11:24:31.638Z,14.79
2019-02-18T11:27:02.754Z,14.74
2019-02-18T11:29:32.948Z,14.76
2019-02-18T11:32:04.135Z,14.73
2019-02-18T11:34:36.334Z,14.75
2019-02-18T11:37:13.874Z,14.94
2019-02-18T11:39:44.520Z,15.14
2019-02-18T11:42:14.732Z,14.96
2019-02-18T11:44:44.905Z,15.34
2019-02-18T11:47:15.104Z,15.55
2019-02-18T11:49:49.633Z,15.68
2019-02-18T11:52:27.554Z,15.55
2019-02-18T11:55:01.653Z,15.60
2019-02-18T11:57:34.777Z,15.53
2019-02-18T12:00:15.305Z,15.38
2019-02-18T12:03:03.987Z,15.44
2019-02-18T12:05:44.528Z,15.54
2019-02-18T12:08:19.047Z,15.49
2019-02-18T12:10:52.297Z,15.43
2019-02-18T12:13:27.380Z,15.59
2019-02-18T12:15:58.479Z,15.49
2019-02-18T12:18:29.963Z,15.71
2019-02-18T12:21:06.329Z,15.70
2019-02-18T12:23:37.617Z,15.74
2019-02-18T12:26:07.795Z,15.57
2019-02-18T12:28:39.966Z,15.61
2019-02-18T12:31:10.324Z,15.82
2019-02-18T12:33:41.466Z,15.91
2019-02-18T12:36:11.664Z,15.97
2019-02-18T12:38:45.722Z,15.59
2019-02-18T12:41:15.912Z,15.61
2019-02-18T12:43:46.418Z,15.69
2019-02-18T12:46:16.623Z,15.89
2019-02-18T12:48:53.696Z,16.07
2019-02-18T12:51:23.890Z,16.22
2019-02-18T12:54:04.525Z,16.20
2019-02-18T12:56:25.976Z,16.39
2019-02-18T12:58:56.202Z,16.51
2019-02-18T13:01:27.782Z,16.36
2019-02-18T13:04:00.065Z,16.42
2019-02-18T13:06:30.258Z,16.54
2019-02-18T13:09:10.723Z,16.59
2019-02-18T13:11:42.926Z,16.74
2019-02-18T13:14:19.032Z,16.49
2019-02-18T13:16:49.306Z,16.74
2019-02-18T13:19:22.498Z,16.58
2019-02-18T13:21:52.685Z,16.37
2019-02-18T13:24:31.250Z,16.49
2019-02-18T13:27:11.794Z,16.40
2019-02-18T13:29:57.148Z,16.31
2019-02-18T13:32:27.627Z,16.46
2019-02-18T13:35:07.831Z,16.32
2019-02-18T13:37:38.022Z,16.22
2019-02-18T13:40:15.936Z,16.29
2019-02-18T13:42:46.548Z,16.37
2019-02-18T13:45:16.734Z,16.45
2019-02-18T13:47:46.938Z,16.49
2019-02-18T13:50:17.127Z,16.32
2019-02-18T13:52:47.322Z,16.28
2019-02-18T13:55:18.451Z,16.35
2019-02-18T13:57:49.628Z,16.14
2019-02-18T14:00:25.678Z,16.07
2019-02-18T14:03:14.380Z,16.05
2019-02-18T14:05:44.956Z,16.08
2019-02-18T14:08:17.091Z,16.04
2019-02-18T14:10:47.321Z,15.89
2019-02-18T14:13:20.691Z,15.91
2019-02-18T14:15:50.906Z,15.98
2019-02-18T14:18:24.403Z,15.97
2019-02-18T14:20:54.630Z,16.03
2019-02-18T14:23:24.824Z,15.94
2019-02-18T14:25:55.019Z,15.84
2019-02-18T14:28:35.656Z,15.84
2019-02-18T14:31:05.917Z,15.70
2019-02-18T14:33:41.220Z,15.73
2019-02-18T14:36:15.976Z,15.73
2019-02-18T14:39:00.478Z,15.71
2019-02-18T14:41:34.402Z,15.76
2019-02-18T14:44:04.961Z,15.68
2019-02-18T14:46:35.158Z,15.55
2019-02-18T14:49:05.368Z,15.68
2019-02-18T14:51:35.570Z,15.58
2019-02-18T14:54:05.778Z,15.55
2019-02-18T14:56:36.003Z,15.43
2019-02-18T14:59:10.337Z,15.60
2019-02-18T15:01:40.561Z,15.55
2019-02-18T15:04:18.267Z,15.45
2019-02-18T15:07:04.456Z,15.44
2019-02-18T15:09:40.219Z,15.45
2019-02-18T15:12:39.731Z,15.56
2019-02-18T15:15:14.738Z,15.44
2019-02-18T15:17:58.013Z,15.34
2019-02-18T15:20:30.203Z,15.34
2019-02-18T15:23:10.324Z,15.27
2019-02-18T15:25:44.050Z,15.35
2019-02-18T15:28:14.308Z,15.29
2019-02-18T15:30:47.886Z,15.25
2019-02-18T15:33:31.201Z,15.20
2019-02-18T15:36:01.517Z,15.29
2019-02-18T15:38:31.737Z,15.22
2019-02-18T15:41:04.295Z,15.16
2019-02-18T15:43:34.498Z,15.17
2019-02-18T15:46:05.758Z,15.17
2019-02-18T15:48:36.503Z,15.16
2019-02-18T15:51:06.797Z,15.17
2019-02-18T15:54:05.838Z,15.03
2019-02-18T15:56:42.371Z,15.15
2019-02-18T15:59:12.579Z,15.08
2019-02-18T16:01:48.820Z,15.02
2019-02-18T16:04:31.926Z,15.03
2019-02-18T16:07:02.166Z,14.94
2019-02-18T16:09:38.148Z,14.99
2019-02-18T16:12:28.593Z,14.91
2019-02-18T16:14:58.806Z,14.87
2019-02-18T16:17:35.636Z,14.75
2019-02-18T16:20:13.534Z,14.72
2019-02-18T16:22:43.797Z,14.78
2019-02-18T16:25:24.190Z,14.73
2019-02-18T16:27:54.390Z,14.67
2019-02-18T16:30:24.970Z,14.63
2019-02-18T16:32:57.179Z,14.60
2019-02-18T16:35:27.668Z,14.54
2019-02-18T16:38:22.949Z,14.43
2019-02-18T16:40:53.171Z,14.35
2019-02-18T16:43:23.644Z,14.14
2019-02-18T16:45:57.120Z,13.98
2019-02-18T16:48:27.497Z,13.70
2019-02-18T16:51:10.623Z,13.83
2019-02-18T16:53:40.815Z,13.84
2019-02-18T16:56:11.037Z,13.76
2019-02-18T16:58:52.274Z,13.65
2019-02-18T17:01:29.817Z,13.48
2019-02-18T17:04:00.005Z,13.42
2019-02-18T17:06:37.747Z,13.32
2019-02-18T17:09:12.227Z,13.20
2019-02-18T17:11:42.701Z,13.10
2019-02-18T17:14:13.956Z,13.04
2019-02-18T17:16:44.145Z,12.88
2019-02-18T17:19:23.408Z,12.90
2019-02-18T17:21:53.607Z,12.76
2019-02-18T17:24:37.113Z,12.69
2019-02-18T17:27:07.333Z,12.72
2019-02-18T17:29:50.180Z,12.67
2019-02-18T17:32:22.715Z,12.49
2019-02-18T17:34:53.832Z,12.41
2019-02-18T17:37:24.044Z,12.37
2019-02-18T17:39:54.243Z,12.34
2019-02-18T17:42:24.437Z,12.28
2019-02-18T17:44:56.575Z,12.34
2019-02-18T17:47:26.776Z,12.26
2019-02-18T17:49:56.978Z,12.37
2019-02-18T17:52:27.167Z,12.32
2019-02-18T17:55:04.643Z,12.01
2019-02-18T17:57:41.666Z,11.90
2019-02-18T18:00:15.964Z,11.98
2019-02-18T18:02:51.147Z,11.86
2019-02-18T18:05:28.839Z,11.98
2019-02-18T18:08:02.459Z,11.94
2019-02-18T18:10:32.748Z,11.77
2019-02-18T18:13:02.947Z,11.94
2019-02-18T18:15:38.662Z,11.60
2019-02-18T18:18:08.917Z,11.67
2019-02-18T18:20:39.501Z,11.59
2019-02-18T18:23:09.698Z,11.61
2019-02-18T18:25:39.918Z,11.63
2019-02-18T18:28:37.649Z,11.77
2019-02-18T18:31:20.412Z,11.45
2019-02-18T18:33:50.626Z,11.31
2019-02-18T18:36:42.255Z,11.34
2019-02-18T18:39:12.437Z,11.28
2019-02-18T18:41:50.867Z,11.15
2019-02-18T18:44:31.951Z,11.15
2019-02-18T18:47:10.741Z,11.10
2019-02-18T18:49:54.227Z,11.12
2019-02-18T18:52:24.427Z,11.07
2019-02-18T18:54:56.555Z,11.11
2019-02-18T18:57:26.741Z,11.17
2019-02-18T18:59:56.949Z,11.21
2019-02-18T19:02:38.430Z,11.29
2019-02-18T19:05:18.728Z,11.01
2019-02-18T19:08:06.111Z,11.03
2019-02-18T19:10:36.486Z,11.10
2019-02-18T19:13:06.860Z,11.13
2019-02-18T19:15:49.794Z,10.99
2019-02-18T19:18:20.008Z,10.97
2019-02-18T19:20:51.276Z,11.00
2019-02-18T19:23:46.643Z,10.87
2019-02-18T19:26:21.681Z,10.89
2019-02-18T19:28:52.189Z,10.97
2019-02-18T19:31:22.363Z,10.97
2019-02-18T19:33:52.551Z,10.96
2019-02-18T19:36:46.525Z,10.74
2019-02-18T19:39:48.516Z,10.74
2019-02-18T19:42:20.745Z,10.68
2019-02-18T19:44:50.931Z,10.54
2019-02-18T19:47:36.392Z,10.44
2019-02-18T19:50:07.735Z,10.29
2019-02-18T19:52:37.958Z,10.52
2019-02-18T19:55:10.185Z,10.22
2019-02-18T19:57:40.454Z,10.39
2019-02-18T20:00:18.798Z,10.38
2019-02-18T20:02:49.059Z,9.94
2019-02-18T20:05:34.593Z,10.09
2019-02-18T20:08:09.070Z,9.91
2019-02-18T20:10:39.415Z,10.10
2019-02-18T20:13:09.604Z,9.93
2019-02-18T20:16:19.368Z,10.05
2019-02-18T20:18:49.569Z,9.91
2019-02-18T20:21:31.732Z,9.98
2019-02-18T20:24:01.930Z,9.84
2019-02-18T20:26:41.282Z,9.46
2019-02-18T20:29:13.718Z,9.29
2019-02-18T20:31:44.199Z,9.36
2019-02-18T20:34:14.412Z,9.59
2019-02-18T20:36:44.586Z,9.48
2019-02-18T20:39:15.047Z,9.58
2019-02-18T20:41:52.256Z,9.68
2019-02-18T20:44:22.443Z,9.72
2019-02-18T20:46:52.635Z,9.72
2019-02-18T20:49:23.120Z,9.71
2019-02-18T20:51:55.592Z,9.48
2019-02-18T20:54:25.809Z,9.47
2019-02-18T20:57:22.522Z,9.74
2019-02-18T20:59:53.099Z,9.64
2019-02-18T21:02:27.890Z,9.59
2019-02-18T21:05:05.684Z,9.54
2019-02-18T21:07:46.890Z,9.81
2019-02-18T21:10:20.944Z,9.49
2019-02-18T21:12:51.213Z,9.53
2019-02-18T21:15:21.429Z,9.34
2019-02-18T21:17:53.518Z,9.27
2019-02-18T21:20:23.703Z,9.26
2019-02-18T21:22:55.913Z,9.02
2019-02-18T21:25:30.586Z,9.30
2019-02-18T21:28:07.852Z,8.83
2019-02-18T21:30:38.043Z,9.05
2019-02-18T21:33:08.598Z,9.06
2019-02-18T21:35:45.203Z,9.00
2019-02-18T21:38:22.232Z,8.70
2019-02-18T21:40:52.449Z,8.58
2019-02-18T21:43:53.150Z,8.76
2019-02-18T21:46:34.666Z,8.53
2019-02-18T21:49:29.439Z,8.36
2019-02-18T21:52:00.578Z,8.39
2019-02-18T21:55:00.328Z,8.38
2019-02-18T21:57:30.928Z,8.18
2019-02-18T22:00:22.761Z,8.39
2019-02-18T22:03:02.402Z,8.47
2019-02-18T22:05:51.781Z,8.49
2019-02-18T22:08:23.232Z,8.72
2019-02-18T22:10:55.338Z,8.68
2019-02-18T22:13:25.718Z,8.80
2019-02-18T22:15:55.919Z,8.83
2019-02-18T22:18:27.083Z,8.83
2019-02-18T22:20:57.275Z,8.78
2019-02-18T22:23:29.983Z,8.53
2019-02-18T22:26:00.680Z,8.62
2019-02-18T22:28:31.330Z,8.54
2019-02-18T22:31:14.502Z,8.50
2019-02-18T22:33:44.799Z,8.36
2019-02-18T22:36:43.585Z,8.23
2019-02-18T22:39:13.951Z,8.24
2019-02-18T22:41:49.956Z,8.23
2019-02-18T22:44:26.041Z,8.26
2019-02-18T22:47:00.293Z,8.32
2019-02-18T22:49:32.697Z,8.07
2019-02-18T22:52:20.047Z,7.99
2019-02-18T22:54:50.973Z,8.05
2019-02-18T22:57:55.979Z,7.93
2019-02-18T23:00:45.630Z,7.85
2019-02-18T23:03:30.358Z,7.96
2019-02-18T23:06:07.489Z,7.99
2019-02-18T23:08:37.699Z,7.86
2019-02-18T23:11:09.575Z,7.90
2019-02-18T23:13:39.818Z,7.86
2019-02-18T23:16:10.074Z,7.90
2019-02-18T23:18:44.434Z,8.09
2019-02-18T23:21:20.849Z,8.16
2019-02-18T23:23:51.395Z,8.04
2019-02-18T23:26:21.873Z,8.13
2019-02-18T23:28:52.320Z,8.28
2019-02-18T23:33:55.996Z,7.98
2019-02-18T23:36:26.793Z,8.30
2019-02-18T23:39:16.569Z,7.93
2019-02-18T23:41:46.996Z,7.90
2019-02-18T23:44:33.560Z,7.82
2019-02-18T23:47:03.739Z,7.86
2019-02-18T23:49:33.934Z,8.02
2019-02-18T23:52:04.116Z,7.96
2019-02-18T23:54:34.318Z,8.02
2019-02-18T23:57:04.502Z,7.90
2019-02-18T23:59:41.824Z,7.96
